Time;durP1;ratioP1;P1;durP2;ratioP2;P2;SDS_P1;SDS_P2;PMS_P1;PMS_P2;Temp;Humidity;BMP_temperature;BMP_pressure;BME280_temperature;BME280_humidity;BME280_pressure;Samples;Min_cycle;Max_cycle;Signal;HPM_P1;HPM_P2
2023/04/10 00:02:16;;;;;;;63.10;56.78;;;7.30;99.90;;;;;;5068032;28;20040;-70
2023/04/10 00:04:42;;;;;;;62.90;56.50;;;7.30;99.90;;;;;;5067141;28;20043;-70
2023/04/10 00:07:07;;;;;;;64.88;58.35;;;7.30;99.90;;;;;;5085177;28;20104;-70
2023/04/10 00:09:33;;;;;;;62.15;55.63;;;7.20;99.90;;;;;;5081224;28;20106;-70
2023/04/10 00:11:59;;;;;;;63.33;56.78;;;7.20;99.90;;;;;;5067703;28;20457;-70
2023/04/10 00:14:25;;;;;;;66.07;59.30;;;7.10;99.90;;;;;;5080983;28;20040;-70
2023/04/10 00:16:51;;;;;;;61.50;55.17;;;7.00;99.90;;;;;;5064596;28;20101;-70
2023/04/10 00:19:17;;;;;;;63.50;57.08;;;7.00;99.90;;;;;;5068300;28;20305;-70
2023/04/10 00:21:42;;;;;;;61.83;55.40;;;7.00;99.90;;;;;;5064322;28;20036;-70
2023/04/10 00:24:08;;;;;;;63.65;57.17;;;7.00;99.90;;;;;;5065828;28;20050;-70
2023/04/10 00:26:37;;;;;;;62.50;55.88;;;7.00;99.90;;;;;;5085004;28;20609;-70
2023/04/10 00:29:02;;;;;;;62.88;55.22;;;6.90;99.90;;;;;;5093915;27;20047;-70
2023/04/10 00:31:29;;;;;;;62.45;55.90;;;6.90;99.90;;;;;;5067266;28;20432;-70
2023/04/10 00:33:55;;;;;;;63.35;56.65;;;6.90;99.90;;;;;;5066827;28;20054;-70
2023/04/10 00:36:20;;;;;;;70.32;62.92;;;6.90;99.90;;;;;;5086604;28;20403;-70
2023/04/10 00:38:47;;;;;;;70.40;63.40;;;6.90;99.90;;;;;;5100139;28;20076;-69
2023/04/10 00:41:12;;;;;;;66.97;59.92;;;6.80;99.90;;;;;;5089558;28;20039;-69
2023/04/10 00:43:38;;;;;;;67.15;59.80;;;6.80;99.90;;;;;;5086108;28;20623;-70
2023/04/10 00:46:05;;;;;;;69.45;62.22;;;6.80;99.90;;;;;;5085169;28;20040;-69
2023/04/10 00:48:32;;;;;;;65.90;59.03;;;6.70;99.90;;;;;;5084612;28;20590;-70
2023/04/10 00:50:58;;;;;;;65.80;59.08;;;6.60;99.90;;;;;;5085683;28;20047;-69
2023/04/10 00:53:24;;;;;;;68.10;61.22;;;6.60;99.90;;;;;;5085031;28;20039;-70
2023/04/10 00:55:50;;;;;;;65.47;58.45;;;6.50;99.90;;;;;;5085741;28;20043;-70
2023/04/10 00:58:15;;;;;;;65.32;58.55;;;6.50;99.90;;;;;;5086044;28;20036;-69
2023/04/10 01:00:41;;;;;;;66.18;58.90;;;6.50;99.90;;;;;;5086753;28;20039;-70
2023/04/10 01:03:08;;;;;;;67.45;60.03;;;6.40;99.90;;;;;;5066724;28;20043;-69
2023/04/10 01:05:41;;;;;;;65.15;58.05;;;6.40;99.90;;;;;;5086638;28;20043;-70
2023/04/10 01:08:52;;;;;;;67.40;60.38;;;6.40;99.90;;;;;;5085764;28;20046;-70
2023/04/10 01:11:23;;;;;;;66.43;57.92;;;6.30;99.90;;;;;;5071172;28;20492;-69
2023/04/10 01:14:03;;;;;;;70.15;62.75;;;6.30;99.90;;;;;;5082068;28;20036;-70
2023/04/10 01:17:11;;;;;;;68.07;60.95;;;6.30;99.90;;;;;;5083681;28;20055;-70
2023/04/10 01:19:48;;;;;;;71.35;63.58;;;6.20;99.90;;;;;;5068368;28;20380;-70
2023/04/10 01:22:16;;;;;;;79.68;71.15;;;6.20;99.90;;;;;;5088559;28;21005;-70
2023/04/10 01:25:14;;;;;;;88.10;79.55;;;6.20;99.90;;;;;;5073639;28;20035;-70
2023/04/10 01:28:09;;;;;;;89.72;81.13;;;6.20;99.90;;;;;;5093743;27;20724;-70
2023/04/10 01:30:36;;;;;;;88.57;79.80;;;6.10;99.90;;;;;;5069379;27;20402;-70
2023/04/10 01:33:05;;;;;;;89.05;80.65;;;6.10;99.90;;;;;;5130368;27;20163;-70
2023/04/10 01:35:32;;;;;;;95.72;86.65;;;6.10;99.90;;;;;;5088476;27;20457;-70
2023/04/10 01:38:00;;;;;;;104.25;94.60;;;6.10;99.90;;;;;;5114599;27;20066;-70
2023/04/10 01:40:28;;;;;;;108.03;98.38;;;6.10;99.90;;;;;;5107141;27;20035;-70
2023/04/10 01:42:56;;;;;;;106.75;96.93;;;6.10;99.90;;;;;;5086616;27;20437;-70
2023/04/10 01:45:26;;;;;;;101.30;92.13;;;6.10;99.90;;;;;;5088421;27;20380;-71
2023/04/10 01:47:53;;;;;;;103.82;94.45;;;6.10;99.90;;;;;;5088734;27;20048;-71
2023/04/10 01:50:22;;;;;;;105.85;95.97;;;6.10;99.90;;;;;;5120151;27;20061;-70
2023/04/10 01:52:49;;;;;;;105.80;96.15;;;6.10;99.90;;;;;;5084531;27;20031;-70
2023/04/10 01:55:14;;;;;;;107.85;98.20;;;6.10;99.90;;;;;;5089494;28;20569;-70
2023/04/10 01:57:40;;;;;;;109.72;99.45;;;6.10;99.90;;;;;;5092594;27;20039;-70
2023/04/10 02:00:07;;;;;;;109.68;99.53;;;6.10;99.90;;;;;;5108363;27;20122;-70
2023/04/10 02:02:33;;;;;;;109.53;99.28;;;6.10;99.90;;;;;;5070887;27;20039;-70
2023/04/10 02:04:59;;;;;;;106.25;96.65;;;6.10;99.90;;;;;;5086032;27;20043;-70
2023/04/10 02:07:50;;;;;;;108.70;98.43;;;6.00;99.90;;;;;;5091566;27;20050;-70
2023/04/10 02:11:02;;;;;;;110.35;99.95;;;6.00;99.90;;;;;;5089545;27;20054;-70
2023/04/10 02:13:33;;;;;;;109.38;99.53;;;6.00;99.90;;;;;;5018238;28;20045;-71
2023/04/10 02:16:00;;;;;;;107.55;97.15;;;6.00;99.90;;;;;;5112258;27;20059;-71
2023/04/10 02:18:26;;;;;;;111.90;101.28;;;6.00;99.90;;;;;;5087561;27;20035;-70
2023/04/10 02:20:53;;;;;;;109.60;99.68;;;6.00;99.90;;;;;;5091623;27;20095;-71
2023/04/10 02:23:19;;;;;;;111.30;100.97;;;6.00;99.90;;;;;;5068234;27;20396;-70
2023/04/10 02:25:45;;;;;;;108.10;98.03;;;6.00;99.90;;;;;;5070901;28;20048;-71
2023/04/10 02:28:11;;;;;;;109.85;99.15;;;6.00;99.90;;;;;;5088311;27;20390;-70
2023/04/10 02:30:38;;;;;;;105.18;94.88;;;6.00;99.90;;;;;;5087521;27;20458;-71
2023/04/10 02:33:03;;;;;;;107.25;97.35;;;6.00;99.90;;;;;;5082192;27;20391;-70
2023/04/10 02:35:29;;;;;;;103.05;93.47;;;6.00;99.90;;;;;;5089806;27;20140;-70
2023/04/10 02:37:55;;;;;;;103.90;93.68;;;5.90;99.90;;;;;;5107036;27;20607;-71
2023/04/10 02:40:21;;;;;;;100.32;90.85;;;5.90;99.90;;;;;;5086001;27;20047;-70
2023/04/10 02:42:47;;;;;;;107.07;96.35;;;5.90;99.90;;;;;;5121291;27;20035;-70
2023/04/10 02:45:12;;;;;;;101.82;92.20;;;5.90;99.90;;;;;;5091832;27;20372;-71
2023/04/10 02:47:38;;;;;;;108.97;98.57;;;5.90;99.90;;;;;;5071862;28;20035;-70
2023/04/10 02:50:04;;;;;;;103.35;93.45;;;5.90;99.90;;;;;;5087830;27;20061;-70
2023/04/10 02:52:29;;;;;;;101.20;91.07;;;5.90;99.90;;;;;;5089141;28;20035;-71
2023/04/10 02:54:55;;;;;;;105.68;95.78;;;5.90;99.90;;;;;;5072595;27;20509;-71
2023/04/10 02:57:21;;;;;;;107.40;96.57;;;5.90;99.90;;;;;;5072689;27;20120;-70
2023/04/10 02:59:50;;;;;;;98.18;88.63;;;5.90;99.90;;;;;;5088850;27;20039;-71
2023/04/10 03:02:15;;;;;;;101.90;92.10;;;5.90;99.90;;;;;;5122211;27;20047;-71
2023/04/10 03:04:41;;;;;;;104.53;93.95;;;6.00;99.90;;;;;;5087113;27;20046;-71
2023/04/10 03:07:08;;;;;;;103.68;93.70;;;6.00;99.90;;;;;;5075736;27;20043;-71
2023/04/10 03:09:34;;;;;;;101.03;91.35;;;6.10;99.90;;;;;;5083695;28;20040;-71
2023/04/10 03:12:00;;;;;;;100.97;90.88;;;6.10;99.90;;;;;;5091313;27;20514;-70
2023/04/10 03:14:26;;;;;;;99.72;89.45;;;6.20;99.90;;;;;;5105149;27;20040;-70
2023/04/10 03:16:52;;;;;;;95.53;86.30;;;6.30;99.90;;;;;;5089201;27;20071;-70
2023/04/10 03:19:18;;;;;;;100.93;91.03;;;6.30;99.90;;;;;;5104853;27;20031;-70
2023/04/10 03:21:44;;;;;;;100.07;89.60;;;6.40;99.90;;;;;;5089263;27;20035;-70
2023/04/10 03:24:10;;;;;;;98.80;88.93;;;6.30;99.90;;;;;;5085492;27;20047;-71
2023/04/10 03:26:35;;;;;;;96.90;87.13;;;6.30;99.90;;;;;;5087742;27;20039;-70
2023/04/10 03:29:01;;;;;;;95.13;85.47;;;6.30;99.90;;;;;;5085408;27;20043;-70
2023/04/10 03:31:27;;;;;;;96.35;86.78;;;6.30;99.90;;;;;;5071833;27;20036;-70
2023/04/10 03:33:52;;;;;;;97.07;87.80;;;6.30;99.90;;;;;;5086816;28;20035;-71
2023/04/10 03:36:18;;;;;;;94.95;85.63;;;6.30;99.90;;;;;;5088307;28;20035;-70
2023/04/10 03:38:44;;;;;;;96.95;86.85;;;6.30;99.90;;;;;;5085373;28;20057;-70
2023/04/10 03:41:09;;;;;;;92.70;83.20;;;6.30;99.90;;;;;;5122922;27;20043;-69
2023/04/10 03:43:35;;;;;;;91.47;81.88;;;6.30;99.90;;;;;;5086373;28;20471;-70
2023/04/10 03:46:00;;;;;;;92.43;83.00;;;6.40;99.90;;;;;;5102347;27;20049;-70
2023/04/10 03:48:27;;;;;;;92.15;82.60;;;6.40;99.90;;;;;;5084384;27;20407;-71
2023/04/10 03:50:53;;;;;;;94.80;85.47;;;6.50;99.90;;;;;;5117963;27;20095;-70
2023/04/10 03:53:19;;;;;;;94.22;84.53;;;6.40;99.90;;;;;;5084175;28;20133;-70
2023/04/10 03:55:45;;;;;;;95.68;85.97;;;6.40;99.90;;;;;;5082475;27;21648;-70
2023/04/10 03:58:11;;;;;;;92.15;82.47;;;6.40;99.90;;;;;;5066542;27;20039;-70
2023/04/10 04:00:36;;;;;;;94.45;84.78;;;6.40;99.90;;;;;;5083744;28;20044;-71
2023/04/10 04:03:03;;;;;;;92.32;82.97;;;6.40;99.90;;;;;;5100192;27;20128;-70
2023/04/10 04:05:32;;;;;;;88.93;79.53;;;6.40;99.90;;;;;;5084796;27;20078;-70
2023/04/10 04:07:58;;;;;;;91.68;82.47;;;6.50;99.90;;;;;;5104326;27;20034;-70
2023/04/10 04:10:23;;;;;;;90.68;81.18;;;6.50;99.90;;;;;;5083418;28;20795;-70
2023/04/10 04:12:49;;;;;;;88.35;79.35;;;6.50;99.90;;;;;;5069991;27;20039;-70
2023/04/10 04:15:15;;;;;;;92.82;83.55;;;6.60;99.90;;;;;;5084955;28;20071;-70
2023/04/10 04:17:41;;;;;;;88.53;79.25;;;6.60;99.90;;;;;;5069441;27;20035;-70
2023/04/10 04:20:07;;;;;;;89.97;80.60;;;6.60;99.90;;;;;;5083187;27;20452;-70
2023/04/10 04:22:33;;;;;;;89.07;80.15;;;6.60;99.90;;;;;;5086696;27;20047;-70
2023/04/10 04:24:58;;;;;;;91.60;82.13;;;6.60;99.90;;;;;;5084726;28;20044;-70
2023/04/10 04:27:24;;;;;;;85.32;76.55;;;6.70;99.90;;;;;;5087809;27;20038;-70
2023/04/10 04:29:50;;;;;;;86.20;77.47;;;6.70;99.90;;;;;;5083484;27;20055;-71
2023/04/10 04:32:15;;;;;;;90.13;80.72;;;6.80;99.90;;;;;;5084253;28;20074;-70
2023/04/10 04:34:41;;;;;;;83.95;74.90;;;6.90;99.90;;;;;;5104329;27;20039;-70
2023/04/10 04:37:07;;;;;;;86.88;77.97;;;7.00;99.90;;;;;;5082224;28;20036;-70
2023/04/10 04:39:32;;;;;;;83.25;74.60;;;7.00;99.90;;;;;;5070168;28;20118;-70
2023/04/10 04:41:58;;;;;;;86.28;77.35;;;7.00;99.90;;;;;;5087225;28;20379;-70
2023/04/10 04:44:24;;;;;;;86.68;77.82;;;7.00;99.90;;;;;;5087389;28;20395;-70
2023/04/10 04:46:49;;;;;;;84.72;76.00;;;7.00;99.90;;;;;;5068559;28;20074;-70
2023/04/10 04:49:15;;;;;;;84.40;75.70;;;7.00;99.90;;;;;;5083712;28;20062;-71
2023/04/10 04:51:40;;;;;;;82.20;73.22;;;7.00;99.90;;;;;;5070661;28;20505;-71
2023/04/10 04:54:06;;;;;;;82.63;73.97;;;7.10;99.90;;;;;;5098323;28;20709;-70
2023/04/10 04:56:32;;;;;;;83.20;74.72;;;7.00;99.90;;;;;;5086051;28;20585;-70
2023/04/10 04:58:57;;;;;;;80.78;72.63;;;7.10;99.90;;;;;;5093547;28;20130;-69
2023/04/10 05:01:23;;;;;;;84.53;76.20;;;7.10;99.90;;;;;;5084933;28;20044;-69
2023/04/10 05:03:49;;;;;;;81.18;72.82;;;7.10;99.90;;;;;;5089063;27;20071;-69
2023/04/10 05:06:14;;;;;;;77.85;69.63;;;7.10;99.90;;;;;;5090869;28;20044;-69
2023/04/10 05:08:40;;;;;;;81.97;73.47;;;7.20;99.90;;;;;;5107626;27;20502;-69
2023/04/10 05:11:06;;;;;;;82.18;73.72;;;7.20;99.90;;;;;;5090480;27;20649;-69
2023/04/10 05:13:31;;;;;;;79.97;71.55;;;7.20;99.90;;;;;;5075958;28;20031;-69
2023/04/10 05:15:57;;;;;;;79.25;71.30;;;7.30;99.90;;;;;;5089605;27;20039;-69
2023/04/10 05:18:23;;;;;;;77.60;69.85;;;7.30;99.90;;;;;;5073037;27;20043;-69
2023/04/10 05:20:49;;;;;;;77.72;69.43;;;7.40;99.90;;;;;;5107872;27;20123;-69
2023/04/10 05:23:17;;;;;;;76.15;68.03;;;7.50;99.90;;;;;;5090825;27;20046;-69
2023/04/10 05:25:43;;;;;;;73.80;66.13;;;7.60;99.90;;;;;;5105826;27;20076;-69
2023/04/10 05:28:09;;;;;;;71.93;64.20;;;7.60;99.90;;;;;;5072889;27;20040;-69
2023/04/10 05:30:34;;;;;;;70.90;63.60;;;7.70;99.90;;;;;;5100162;27;20578;-69
2023/04/10 05:33:00;;;;;;;66.00;58.78;;;7.70;99.90;;;;;;5088093;27;20038;-69
2023/04/10 05:35:26;;;;;;;70.95;63.60;;;7.80;99.90;;;;;;5074800;27;20051;-69
2023/04/10 05:37:51;;;;;;;67.10;60.10;;;7.80;99.90;;;;;;5067742;28;20587;-69
2023/04/10 05:40:17;;;;;;;68.85;61.30;;;7.80;99.90;;;;;;5088665;28;20043;-70
2023/04/10 05:42:42;;;;;;;66.95;59.67;;;7.90;99.90;;;;;;5105136;27;20058;-69
2023/04/10 05:45:08;;;;;;;68.78;59.63;;;7.90;99.90;;;;;;5088855;27;20047;-69
2023/04/10 05:47:34;;;;;;;64.38;57.55;;;7.90;99.90;;;;;;5089234;27;20116;-69
2023/04/10 05:50:00;;;;;;;64.55;57.65;;;7.90;99.90;;;;;;5087288;27;20445;-69
2023/04/10 05:52:25;;;;;;;63.80;56.35;;;7.90;99.90;;;;;;5102637;27;20032;-70
2023/04/10 05:54:51;;;;;;;64.10;56.08;;;8.00;99.90;;;;;;5091848;27;20042;-70
2023/04/10 05:57:17;;;;;;;62.45;55.60;;;8.00;99.90;;;;;;5084994;27;20035;-70
2023/04/10 05:59:42;;;;;;;65.90;56.80;;;8.10;99.90;;;;;;5108072;27;20114;-69
2023/04/10 06:02:08;;;;;;;60.45;54.03;;;8.10;99.90;;;;;;5122200;27;20538;-70
2023/04/10 06:04:34;;;;;;;64.47;55.10;;;8.10;99.90;;;;;;5088605;28;20605;-69
2023/04/10 06:07:00;;;;;;;60.85;53.15;;;8.20;99.90;;;;;;5073943;27;20048;-70
2023/04/10 06:09:25;;;;;;;60.78;53.00;;;8.20;99.90;;;;;;5087817;27;20046;-70
2023/04/10 06:11:52;;;;;;;64.82;57.85;;;8.30;99.90;;;;;;5087488;27;20078;-70
2023/04/10 06:14:19;;;;;;;65.25;58.28;;;8.30;99.90;;;;;;5083973;28;20136;-70
2023/04/10 06:16:44;;;;;;;61.85;53.50;;;8.40;99.90;;;;;;5065575;28;20039;-70
2023/04/10 06:19:10;;;;;;;56.10;50.33;;;8.40;99.90;;;;;;5119760;27;20443;-69
2023/04/10 06:21:36;;;;;;;63.17;54.33;;;8.40;99.90;;;;;;5084346;27;20035;-69
2023/04/10 06:24:02;;;;;;;62.80;55.95;;;8.50;99.90;;;;;;5109466;27;20043;-70
2023/04/10 06:26:27;;;;;;;58.88;52.03;;;8.60;99.90;;;;;;5070220;27;20039;-70
2023/04/10 06:28:53;;;;;;;58.80;52.30;;;8.80;99.90;;;;;;5074358;27;20760;-70
2023/04/10 06:31:22;;;;;;;59.00;52.20;;;8.90;99.90;;;;;;5085230;27;20509;-70
2023/04/10 06:33:49;;;;;;;58.90;51.65;;;8.90;99.90;;;;;;5084774;27;20032;-70
2023/04/10 06:36:15;;;;;;;58.65;51.10;;;9.00;99.90;;;;;;5107418;27;20509;-70
2023/04/10 06:38:41;;;;;;;57.70;50.67;;;9.00;99.90;;;;;;5087016;27;20121;-70
2023/04/10 06:41:07;;;;;;;55.83;49.60;;;9.10;99.90;;;;;;5087023;27;20486;-70
2023/04/10 06:43:34;;;;;;;56.55;50.42;;;9.10;99.90;;;;;;5089960;27;20125;-69
2023/04/10 06:46:00;;;;;;;54.80;48.92;;;9.20;99.90;;;;;;5084922;27;20443;-70
2023/04/10 06:48:25;;;;;;;52.97;47.25;;;9.20;99.90;;;;;;5086496;27;20157;-70
2023/04/10 06:50:51;;;;;;;57.33;51.30;;;9.30;99.90;;;;;;5070712;27;20051;-70
2023/04/10 06:53:17;;;;;;;55.05;49.42;;;9.40;99.90;;;;;;5116019;27;20048;-70
2023/04/10 06:55:42;;;;;;;56.80;50.78;;;9.50;99.90;;;;;;5086579;27;20038;-69
2023/04/10 06:58:08;;;;;;;58.33;52.35;;;9.60;99.90;;;;;;5071318;27;20042;-69
2023/04/10 07:00:33;;;;;;;56.88;50.92;;;9.70;99.90;;;;;;5088021;27;20637;-69
2023/04/10 07:02:59;;;;;;;52.22;45.38;;;9.60;99.90;;;;;;5105856;27;20057;-69
2023/04/10 07:05:25;;;;;;;52.25;46.00;;;9.70;99.90;;;;;;5091963;27;20407;-70
2023/04/10 07:07:50;;;;;;;52.65;47.25;;;9.70;99.90;;;;;;5107914;27;20047;-69
2023/04/10 07:10:16;;;;;;;51.97;46.58;;;9.80;99.90;;;;;;5090531;27;20213;-70
2023/04/10 07:12:42;;;;;;;55.55;49.95;;;9.90;99.90;;;;;;5088608;27;20409;-70
2023/04/10 07:15:08;;;;;;;52.78;47.17;;;10.00;99.90;;;;;;5083908;27;20079;-71
2023/04/10 07:17:34;;;;;;;53.65;48.15;;;10.10;99.90;;;;;;5087952;27;20040;-70
2023/04/10 07:19:59;;;;;;;54.03;48.42;;;10.20;99.90;;;;;;5120792;27;20042;-70
2023/04/10 07:22:26;;;;;;;50.28;45.15;;;10.20;99.90;;;;;;5073557;27;20039;-71
2023/04/10 07:24:51;;;;;;;50.63;45.50;;;10.20;99.90;;;;;;5071308;28;20047;-70
2023/04/10 07:27:17;;;;;;;50.03;44.78;;;10.30;99.90;;;;;;5119465;27;20099;-70
2023/04/10 07:29:42;;;;;;;53.13;47.33;;;10.50;99.90;;;;;;5085359;27;20058;-70
2023/04/10 07:32:08;;;;;;;52.33;46.80;;;10.60;99.90;;;;;;5068755;28;20040;-70
2023/04/10 07:34:34;;;;;;;55.67;50.00;;;10.70;99.90;;;;;;5086269;27;20078;-71
2023/04/10 07:36:59;;;;;;;50.65;45.35;;;10.70;99.90;;;;;;5065148;27;20035;-70
2023/04/10 07:39:25;;;;;;;57.05;51.17;;;10.70;99.90;;;;;;5089100;27;20047;-70
2023/04/10 07:41:56;;;;;;;50.55;44.20;;;10.80;99.90;;;;;;5068792;27;20036;-70
2023/04/10 07:44:21;;;;;;;51.08;45.58;;;10.90;99.90;;;;;;5087839;27;20039;-71
2023/04/10 07:46:47;;;;;;;47.67;42.53;;;11.00;99.90;;;;;;5070085;27;20620;-71
2023/04/10 07:49:12;;;;;;;53.03;47.47;;;11.10;99.90;;;;;;5087640;28;21630;-71
2023/04/10 07:51:38;;;;;;;55.30;49.75;;;11.20;99.90;;;;;;5084585;28;20044;-71
2023/04/10 07:54:04;;;;;;;48.95;43.65;;;11.40;99.90;;;;;;5084521;28;20078;-71
2023/04/10 07:56:32;;;;;;;47.50;42.38;;;11.50;99.90;;;;;;5086237;28;20032;-70
2023/04/10 07:58:59;;;;;;;47.53;42.35;;;11.70;99.90;;;;;;5067171;28;20475;-71
2023/04/10 08:01:26;;;;;;;49.33;44.15;;;11.80;99.90;;;;;;5068002;27;20047;-71
2023/04/10 08:03:52;;;;;;;44.95;40.17;;;12.00;99.90;;;;;;5119102;27;20039;-71
2023/04/10 08:06:18;;;;;;;47.63;42.67;;;12.10;99.90;;;;;;5085765;28;20410;-71
2023/04/10 08:08:43;;;;;;;44.85;40.10;;;12.10;99.90;;;;;;5069750;28;20091;-71
2023/04/10 08:11:27;;;;;;;43.35;37.83;;;12.10;99.90;;;;;;5080599;28;20559;-71
2023/04/10 08:13:57;;;;;;;43.30;38.50;;;12.20;99.90;;;;;;5067982;27;20368;-71
2023/04/10 08:16:24;;;;;;;42.65;37.60;;;12.20;99.90;;;;;;5083745;28;20391;-71
2023/04/10 08:18:51;;;;;;;44.45;39.85;;;12.20;99.90;;;;;;5087628;28;20051;-71
2023/04/10 08:21:18;;;;;;;45.38;40.88;;;12.30;99.90;;;;;;5089417;27;20075;-71
2023/04/10 08:23:45;;;;;;;41.47;37.08;;;12.40;99.90;;;;;;5083291;28;20130;-71
2023/04/10 08:26:11;;;;;;;45.63;40.78;;;12.50;99.90;;;;;;5085490;28;20158;-70
2023/04/10 08:28:36;;;;;;;42.53;38.17;;;12.60;99.90;;;;;;5064999;28;20669;-71
2023/04/10 08:31:02;;;;;;;40.33;36.35;;;12.70;99.90;;;;;;5086568;28;20047;-70
2023/04/10 08:33:29;;;;;;;40.33;35.75;;;12.70;99.90;;;;;;5085663;28;20126;-70
2023/04/10 08:35:54;;;;;;;39.97;35.65;;;12.90;99.90;;;;;;5099204;28;20047;-70
2023/04/10 08:38:22;;;;;;;38.75;34.55;;;13.00;99.90;;;;;;5085236;28;20108;-70
2023/04/10 08:40:48;;;;;;;40.90;36.53;;;13.20;99.90;;;;;;5113639;27;20043;-70
2023/04/10 08:43:14;;;;;;;38.17;34.25;;;13.30;99.90;;;;;;5112139;27;20047;-72
2023/04/10 08:45:40;;;;;;;39.42;35.20;;;13.40;99.90;;;;;;5065525;28;20046;-70
2023/04/10 08:48:07;;;;;;;36.17;32.38;;;13.50;99.80;;;;;;5082147;28;20044;-71
2023/04/10 08:50:35;;;;;;;38.85;34.83;;;13.50;99.90;;;;;;5063434;28;20054;-71
2023/04/10 08:53:09;;;;;;;36.85;33.00;;;13.70;99.30;;;;;;5079767;28;20114;-71
2023/04/10 08:55:34;;;;;;;39.28;35.17;;;14.00;99.20;;;;;;5084626;28;20955;-71
2023/04/10 08:58:00;;;;;;;35.60;31.88;;;14.20;98.50;;;;;;5089025;28;20039;-71
2023/04/10 09:00:27;;;;;;;39.70;35.90;;;14.30;98.60;;;;;;5082892;28;20121;-71
2023/04/10 09:02:56;;;;;;;39.58;35.63;;;14.40;98.70;;;;;;5083481;28;20043;-71
2023/04/10 09:05:26;;;;;;;39.25;35.47;;;14.50;97.70;;;;;;5087756;28;20093;-71
2023/04/10 09:07:51;;;;;;;31.70;28.05;;;14.80;97.40;;;;;;5081789;28;20048;-71
2023/04/10 09:10:17;;;;;;;35.00;31.35;;;14.90;95.70;;;;;;5084384;28;20509;-71
2023/04/10 09:12:45;;;;;;;34.70;31.35;;;15.10;96.10;;;;;;5082091;28;20040;-70
2023/04/10 09:15:11;;;;;;;41.67;37.78;;;15.20;96.20;;;;;;5072586;28;20242;-71
2023/04/10 09:17:37;;;;;;;32.47;29.27;;;15.30;95.90;;;;;;5086642;28;20039;-71
2023/04/10 09:20:20;;;;;;;33.42;28.52;;;15.20;95.20;;;;;;5083284;28;20043;-71
2023/04/10 09:22:46;;;;;;;30.58;27.27;;;15.00;95.00;;;;;;5121166;27;20103;-71
2023/04/10 09:25:31;;;;;;;32.88;29.65;;;14.90;94.90;;;;;;5069552;28;20039;-71
2023/04/10 09:28:05;;;;;;;34.53;31.25;;;14.90;94.60;;;;;;5084459;28;20398;-70
2023/04/10 09:30:35;;;;;;;28.80;25.92;;;15.00;95.90;;;;;;5083495;28;20048;-71
2023/04/10 09:33:00;;;;;;;27.85;24.95;;;15.20;96.10;;;;;;5114999;27;20039;-71
2023/04/10 09:35:36;;;;;;;26.95;24.05;;;15.40;94.60;;;;;;5095143;28;20919;-71
2023/04/10 09:38:21;;;;;;;28.15;25.25;;;15.50;94.00;;;;;;5091436;28;20391;-71
2023/04/10 09:40:47;;;;;;;;;;;15.40;93.70;;;;;;5103071;28;20039;-69
2023/04/10 09:43:26;;;;;;;29.65;26.63;;;15.40;93.30;;;;;;5106587;27;20027;-69
2023/04/10 09:45:55;;;;;;;33.33;29.95;;;15.50;93.80;;;;;;5081433;28;20335;-69
2023/04/10 09:48:22;;;;;;;27.67;24.75;;;15.50;94.90;;;;;;5088246;28;20051;-68
2023/04/10 09:50:48;;;;;;;26.73;24.23;;;15.50;92.90;;;;;;5090560;27;20051;-68
2023/04/10 09:53:19;;;;;;;26.35;23.65;;;15.30;93.50;;;;;;5091247;27;20108;-68
2023/04/10 09:55:49;;;;;;;23.70;21.35;;;15.30;93.60;;;;;;5074227;27;20487;-68
2023/04/10 09:58:16;;;;;;;25.33;22.85;;;15.30;92.60;;;;;;5073225;27;20062;-68
2023/04/10 10:00:46;;;;;;;23.98;21.50;;;15.20;92.00;;;;;;5121881;27;20440;-70
2023/04/10 10:03:17;;;;;;;26.15;23.67;;;15.20;93.20;;;;;;5084653;27;20568;-71
2023/04/10 10:05:45;;;;;;;27.98;25.45;;;15.30;93.40;;;;;;5101668;27;20089;-70
2023/04/10 10:08:13;;;;;;;23.35;21.15;;;15.40;92.30;;;;;;5066897;27;20420;-71
2023/04/10 10:10:52;;;;;;;23.10;20.58;;;15.40;92.20;;;;;;5095699;28;20086;-70
2023/04/10 10:13:23;;;;;;;23.85;21.50;;;15.50;92.30;;;;;;5096474;27;20035;-71
2023/04/10 10:16:11;;;;;;;21.90;19.83;;;15.60;92.20;;;;;;5069414;27;20058;-71
2023/04/10 10:18:46;;;;;;;25.45;23.30;;;15.50;92.40;;;;;;5087387;27;20753;-70
2023/04/10 10:21:12;;;;;;;;;;;15.70;93.60;;;;;;5087956;27;20394;-70
2023/04/10 10:23:41;;;;;;;21.27;19.17;;;15.70;91.40;;;;;;5123002;27;21762;-71
2023/04/10 10:26:08;;;;;;;20.95;18.67;;;15.60;91.50;;;;;;5084886;27;20183;-71
2023/04/10 10:28:34;;;;;;;21.83;19.80;;;15.50;91.30;;;;;;5097478;27;20051;-70
2023/04/10 10:31:02;;;;;;;22.98;21.05;;;15.40;91.20;;;;;;5085067;27;20047;-71
2023/04/10 10:33:29;;;;;;;22.17;20.02;;;15.30;91.70;;;;;;5088950;27;20040;-71
2023/04/10 10:35:59;;;;;;;22.65;20.45;;;15.10;91.40;;;;;;5101002;27;20412;-70
2023/04/10 10:38:26;;;;;;;22.20;20.00;;;15.00;91.40;;;;;;5090955;27;20366;-71
2023/04/10 10:41:11;;;;;;;22.10;20.20;;;14.80;91.50;;;;;;5083778;27;20074;-71
2023/04/10 10:43:46;;;;;;;22.77;20.77;;;14.80;92.30;;;;;;5090624;27;20893;-71
2023/04/10 10:46:21;;;;;;;30.77;28.38;;;14.70;92.00;;;;;;5122701;27;20043;-71
2023/04/10 10:48:57;;;;;;;21.17;19.35;;;14.70;93.20;;;;;;5079624;27;20111;-70
2023/04/10 10:51:23;;;;;;;28.40;26.05;;;14.80;92.20;;;;;;5101106;27;20498;-71
2023/04/10 10:53:49;;;;;;;22.70;20.73;;;14.80;93.10;;;;;;5122748;27;20047;-71
2023/04/10 10:56:17;;;;;;;29.00;26.80;;;14.80;92.30;;;;;;5089202;27;20490;-70
2023/04/10 10:58:47;;;;;;;22.33;20.23;;;14.80;92.80;;;;;;5095898;27;20051;-70
2023/04/10 11:01:13;;;;;;;20.27;18.38;;;14.90;92.10;;;;;;5072932;27;20043;-70
2023/04/10 11:03:39;;;;;;;22.90;20.90;;;15.00;91.80;;;;;;5085474;27;20039;-71
2023/04/10 11:06:11;;;;;;;22.55;20.55;;;15.00;92.10;;;;;;5117459;27;20044;-70
2023/04/10 11:08:55;;;;;;;18.88;17.15;;;15.10;92.20;;;;;;5090319;28;20067;-70
2023/04/10 11:11:26;;;;;;;19.77;17.88;;;15.20;92.60;;;;;;5089264;27;20053;-69
2023/04/10 11:13:51;;;;;;;20.80;19.00;;;15.30;92.20;;;;;;5085587;28;20384;-70
2023/04/10 11:16:18;;;;;;;24.42;22.50;;;15.40;92.00;;;;;;5090839;28;20038;-69
2023/04/10 11:18:44;;;;;;;19.10;17.45;;;15.50;92.50;;;;;;5088245;27;20119;-70
2023/04/10 11:21:22;;;;;;;22.48;20.67;;;15.60;92.60;;;;;;5081806;28;20047;-70
2023/04/10 11:23:54;;;;;;;19.15;17.45;;;15.60;90.80;;;;;;5077791;27;20557;-70
2023/04/10 11:26:42;;;;;;;19.88;18.05;;;15.50;91.70;;;;;;5102211;27;20039;-69
2023/04/10 11:29:16;;;;;;;19.60;17.90;;;15.50;91.80;;;;;;5116443;27;20058;-69
2023/04/10 11:31:47;;;;;;;19.77;18.10;;;15.50;91.90;;;;;;5072679;27;20044;-70
2023/04/10 11:34:14;;;;;;;18.95;17.30;;;15.50;92.10;;;;;;5085891;28;20040;-70
2023/04/10 11:36:43;;;;;;;18.70;17.10;;;15.50;92.20;;;;;;5062582;27;20059;-70
2023/04/10 11:39:17;;;;;;;20.20;18.55;;;15.50;91.70;;;;;;5082520;28;20032;-69
2023/04/10 11:41:51;;;;;;;18.85;17.25;;;15.50;92.20;;;;;;5064282;28;20051;-69
2023/04/10 11:44:25;;;;;;;19.02;17.27;;;15.50;91.90;;;;;;5082952;28;20039;-70
2023/04/10 11:46:51;;;;;;;18.45;16.80;;;15.50;91.40;;;;;;5084361;27;20080;-70
2023/04/10 11:49:18;;;;;;;23.23;21.42;;;15.50;91.50;;;;;;5083462;28;20042;-70
2023/04/10 11:51:46;;;;;;;28.98;27.08;;;15.70;92.40;;;;;;5061463;28;20401;-69
2023/04/10 11:54:15;;;;;;;25.00;23.27;;;15.90;93.30;;;;;;5083103;28;20327;-70
2023/04/10 11:56:42;;;;;;;19.00;17.30;;;16.10;92.70;;;;;;5100916;28;20444;-70
2023/04/10 11:59:18;;;;;;;24.05;22.08;;;16.30;91.40;;;;;;5087186;28;20223;-69
2023/04/10 12:01:44;;;;;;;16.73;15.25;;;16.40;90.40;;;;;;5087032;28;20073;-69
2023/04/10 12:04:17;;;;;;;18.60;17.10;;;16.40;90.80;;;;;;5082638;28;20036;-69
2023/04/10 12:06:51;;;;;;;18.42;16.83;;;16.40;90.20;;;;;;5089019;27;20525;-69
2023/04/10 12:09:19;;;;;;;21.45;19.88;;;16.50;90.50;;;;;;5071273;28;20042;-69
2023/04/10 12:11:48;;;;;;;17.27;15.85;;;16.60;88.70;;;;;;5074120;27;20178;-69
2023/04/10 12:14:14;;;;;;;22.27;20.63;;;16.70;90.50;;;;;;5067677;28;20071;-70
2023/04/10 12:16:40;;;;;;;16.65;15.05;;;16.90;88.80;;;;;;5080976;28;20447;-69
2023/04/10 12:19:06;;;;;;;18.20;16.60;;;17.00;87.40;;;;;;5089637;27;20525;-70
2023/04/10 12:21:35;;;;;;;18.63;17.15;;;17.00;89.10;;;;;;5079721;28;20058;-69
2023/04/10 12:24:00;;;;;;;18.85;17.38;;;17.00;87.90;;;;;;5085929;28;20040;-69
2023/04/10 12:26:26;;;;;;;17.15;15.65;;;17.00;89.30;;;;;;5068989;28;20043;-70
2023/04/10 12:28:57;;;;;;;22.35;20.60;;;16.90;88.40;;;;;;5108759;27;20059;-69
2023/04/10 12:31:31;;;;;;;17.17;15.85;;;16.80;89.20;;;;;;5083396;28;20499;-70
2023/04/10 12:33:59;;;;;;;15.27;14.07;;;16.60;89.70;;;;;;5072630;28;20123;-70
2023/04/10 12:36:31;;;;;;;17.48;15.98;;;16.60;90.20;;;;;;5094009;27;20408;-70